createdAt,value
2022-10-05T00:03:41.527Z,9.40
2022-10-05T00:06:10.373Z,6.28
2022-10-05T00:08:37.214Z,8.98
2022-10-05T00:11:07.982Z,7.43
2022-10-05T00:13:34.961Z,7.78
2022-10-05T00:16:17.012Z,5.50
2022-10-05T00:18:47.183Z,7.50
2022-10-05T00:21:23.579Z,7.45
2022-10-05T00:23:51.203Z,7.27
2022-10-05T00:26:24.334Z,8.70
2022-10-05T00:28:51.686Z,7.43
2022-10-05T00:31:21.882Z,7.00
2022-10-05T00:33:49.227Z,11.60
2022-10-05T00:36:16.178Z,7.10
2022-10-05T00:38:43.935Z,6.57
2022-10-05T00:41:30.274Z,8.45
2022-10-05T00:44:23.597Z,5.90
2022-10-05T00:47:21.446Z,6.43
2022-10-05T00:49:54.401Z,4.93
2022-10-05T00:52:24.230Z,7.70
2022-10-05T00:55:07.136Z,5.50
2022-10-05T00:57:55.433Z,6.72
2022-10-05T01:00:26.041Z,7.20
2022-10-05T01:03:09.259Z,7.20
2022-10-05T01:05:47.890Z,7.80
2022-10-05T01:08:24.713Z,7.95
2022-10-05T01:11:08.564Z,7.37
2022-10-05T01:13:35.328Z,7.55
2022-10-05T01:16:15.235Z,7.65
2022-10-05T01:18:47.116Z,7.70
2022-10-05T01:21:20.180Z,7.57
2022-10-05T01:23:55.900Z,8.38
2022-10-05T01:27:02.663Z,9.10
2022-10-05T01:29:41.949Z,5.93
2022-10-05T01:32:16.456Z,7.37
2022-10-05T01:35:04.793Z,8.70
2022-10-05T01:38:00.168Z,7.28
2022-10-05T01:54:26.788Z,8.63
2022-10-05T01:57:15.119Z,9.05
2022-10-05T02:00:00.911Z,6.28
2022-10-05T02:02:30.088Z,5.32
2022-10-05T02:05:07.283Z,9.20
2022-10-05T02:07:42.937Z,8.82
2022-10-05T02:10:30.831Z,8.80
2022-10-05T02:17:58.271Z,10.50
2022-10-05T02:20:30.406Z,6.53
2022-10-05T02:23:03.639Z,8.45
2022-10-05T02:25:33.843Z,5.37
2022-10-05T02:28:06.369Z,7.97
2022-10-05T02:41:39.522Z,7.18
2022-10-05T02:44:33.320Z,8.45
2022-10-05T02:47:05.615Z,7.12
2022-10-05T02:49:41.700Z,8.18
2022-10-05T02:52:23.365Z,5.50
2022-10-05T02:55:27.144Z,6.30
2022-10-05T02:58:19.634Z,7.40
2022-10-05T03:01:09.080Z,6.43
2022-10-05T03:03:40.068Z,6.85
2022-10-05T03:06:16.756Z,6.43
2022-10-05T03:14:23.515Z,10.00
2022-10-05T03:17:02.529Z,11.00
2022-10-05T03:22:36.053Z,9.43
2022-10-05T03:25:02.816Z,6.93
2022-10-05T03:30:22.098Z,8.25
2022-10-05T03:32:57.924Z,7.82
2022-10-05T03:36:02.701Z,10.02
2022-10-05T03:38:42.429Z,8.00
2022-10-05T03:41:11.840Z,6.47
2022-10-05T03:44:01.267Z,8.82
2022-10-05T03:46:52.993Z,7.80
2022-10-05T03:49:26.113Z,11.73
2022-10-05T03:52:01.609Z,9.02
2022-10-05T03:54:36.893Z,8.80
2022-10-05T03:57:08.986Z,7.45
2022-10-05T03:59:45.520Z,6.80
2022-10-05T04:02:26.513Z,8.15
2022-10-05T04:04:59.669Z,6.45
2022-10-05T04:07:48.056Z,6.47
2022-10-05T04:10:22.729Z,10.60
2022-10-05T04:12:55.330Z,8.05
2022-10-05T04:15:31.205Z,6.10
2022-10-05T04:18:04.204Z,6.57
2022-10-05T04:23:13.859Z,8.88
2022-10-05T04:25:53.440Z,8.77
2022-10-05T04:28:54.475Z,9.13
2022-10-05T04:31:47.164Z,6.10
2022-10-05T04:34:51.229Z,7.47
2022-10-05T04:37:34.744Z,6.25
2022-10-05T04:50:54.614Z,7.53
2022-10-05T04:53:29.261Z,10.20
2022-10-05T04:56:10.728Z,11.07
2022-10-05T04:58:46.755Z,13.62
2022-10-05T05:01:47.695Z,16.05
2022-10-05T05:04:42.344Z,27.13
2022-10-05T05:07:34.958Z,30.75
2022-10-05T05:10:19.972Z,26.12
2022-10-05T05:13:00.670Z,18.52
2022-10-05T05:15:40.813Z,18.65
2022-10-05T05:18:19.839Z,13.57
2022-10-05T05:20:54.006Z,7.78
2022-10-05T05:23:37.792Z,8.25
2022-10-05T05:26:17.664Z,10.10
2022-10-05T05:29:18.062Z,8.68
2022-10-05T05:32:05.519Z,10.95
2022-10-05T05:34:41.820Z,9.73
2022-10-05T05:37:21.501Z,7.28
2022-10-05T05:39:56.406Z,6.50
2022-10-05T05:42:31.472Z,9.02
2022-10-05T05:45:02.281Z,6.80
2022-10-05T05:47:38.012Z,5.12
2022-10-05T05:50:32.523Z,5.12
2022-10-05T05:53:06.271Z,6.87
2022-10-05T05:55:40.763Z,5.30
2022-10-05T05:58:21.972Z,6.00
2022-10-05T06:01:35.475Z,5.75
2022-10-05T06:04:09.670Z,3.60
2022-10-05T06:06:39.240Z,4.32
2022-10-05T06:09:18.405Z,5.05
2022-10-05T06:17:05.578Z,6.57
2022-10-05T06:19:33.632Z,5.72
2022-10-05T06:22:08.094Z,4.47
2022-10-05T06:24:53.063Z,5.90
2022-10-05T06:27:37.218Z,3.12
2022-10-05T06:33:10.516Z,3.47
2022-10-05T06:36:02.321Z,3.92
2022-10-05T06:38:34.742Z,6.32
2022-10-05T06:46:23.197Z,6.15
2022-10-05T06:49:16.611Z,7.75
2022-10-05T06:54:39.499Z,5.57
2022-10-05T06:57:30.969Z,5.75
2022-10-05T07:00:04.158Z,5.47
2022-10-05T07:02:52.911Z,3.25
2022-10-05T07:05:40.002Z,7.35
2022-10-05T07:08:12.231Z,5.62
2022-10-05T07:11:00.353Z,4.10
2022-10-05T07:13:45.854Z,5.80
2022-10-05T07:16:34.916Z,4.22
2022-10-05T07:19:16.216Z,3.95
2022-10-05T07:24:34.669Z,4.87
2022-10-05T07:30:06.918Z,6.07
2022-10-05T07:33:09.627Z,2.62
2022-10-05T07:36:17.805Z,2.67
2022-10-05T07:39:15.004Z,5.20
2022-10-05T07:41:46.244Z,3.00
2022-10-05T07:44:33.496Z,8.07
2022-10-05T07:47:35.586Z,5.47
2022-10-05T07:50:26.073Z,6.32
2022-10-05T07:52:58.599Z,3.58
2022-10-05T07:55:39.783Z,3.62
2022-10-05T07:58:32.452Z,4.78
2022-10-05T08:01:08.894Z,3.08
2022-10-05T08:03:46.888Z,3.53
2022-10-05T08:06:39.921Z,2.75
2022-10-05T08:09:21.730Z,3.28
2022-10-05T08:12:06.936Z,3.45
2022-10-05T08:14:56.205Z,2.78
2022-10-05T08:17:51.030Z,4.62
2022-10-05T08:20:36.045Z,2.00
2022-10-05T08:23:12.602Z,3.42
2022-10-05T08:26:07.574Z,3.25
2022-10-05T08:28:40.753Z,4.03
2022-10-05T08:31:30.141Z,3.33
2022-10-05T08:34:31.335Z,2.70
2022-10-05T08:37:02.738Z,4.87
2022-10-05T08:39:55.621Z,5.65
2022-10-05T08:42:59.230Z,3.53
2022-10-05T08:46:10.772Z,4.85
2022-10-05T08:48:59.149Z,3.45
2022-10-05T08:51:37.998Z,2.55
2022-10-05T08:54:32.364Z,4.68
2022-10-05T08:57:07.991Z,3.22
2022-10-05T09:00:06.859Z,6.50
2022-10-05T09:03:17.490Z,4.22
2022-10-05T09:06:06.187Z,3.92
2022-10-05T09:08:51.424Z,3.30
2022-10-05T09:11:40.762Z,5.07
2022-10-05T09:14:07.787Z,5.45
2022-10-05T09:16:43.432Z,2.47
2022-10-05T09:19:28.675Z,3.00
2022-10-05T09:22:24.396Z,3.58
2022-10-05T09:24:54.129Z,3.25
2022-10-05T09:27:38.030Z,3.40
2022-10-05T09:30:22.151Z,3.00
2022-10-05T09:33:13.970Z,4.75
2022-10-05T09:36:03.772Z,3.33
2022-10-05T09:38:51.015Z,4.97
2022-10-05T09:41:36.509Z,3.42
2022-10-05T09:44:13.740Z,5.28
2022-10-05T09:46:49.450Z,6.82
2022-10-05T09:49:25.246Z,7.00
2022-10-05T09:52:11.592Z,3.80
2022-10-05T09:54:46.682Z,4.10
2022-10-05T09:57:30.591Z,3.42
2022-10-05T10:00:15.734Z,2.70
2022-10-05T10:02:48.789Z,4.45
2022-10-05T10:05:47.426Z,7.22
2022-10-05T10:08:36.560Z,3.40
2022-10-05T10:11:25.082Z,4.35
2022-10-05T10:14:10.382Z,4.47
2022-10-05T10:17:11.215Z,4.47
2022-10-05T10:19:56.518Z,2.20
2022-10-05T10:22:49.404Z,4.85
2022-10-05T10:25:35.094Z,2.22
2022-10-05T10:28:07.354Z,3.75
2022-10-05T10:30:52.067Z,4.32
2022-10-05T10:33:27.863Z,4.57
2022-10-05T10:36:13.210Z,2.97
2022-10-05T10:39:06.536Z,5.65
2022-10-05T10:41:51.177Z,5.82
2022-10-05T10:44:54.012Z,3.90
2022-10-05T10:47:42.892Z,6.40
2022-10-05T10:50:42.556Z,4.15
2022-10-05T10:53:51.719Z,5.12
2022-10-05T10:56:40.377Z,2.25
2022-10-05T10:59:41.677Z,4.65
2022-10-05T11:02:29.768Z,5.40
2022-10-05T11:05:22.991Z,3.95
2022-10-05T11:08:12.727Z,5.78
2022-10-05T11:10:52.726Z,4.45
2022-10-05T11:13:34.862Z,4.50
2022-10-05T11:16:38.976Z,2.08
2022-10-05T11:20:05.505Z,6.85
2022-10-05T11:22:56.616Z,5.05
2022-10-05T11:26:06.670Z,3.97
2022-10-05T11:29:17.366Z,3.28
2022-10-05T11:32:15.185Z,4.05
2022-10-05T11:35:12.900Z,5.50
2022-10-05T11:38:14.955Z,6.15
2022-10-05T11:41:06.621Z,8.68
2022-10-05T11:43:33.455Z,3.80
2022-10-05T11:46:09.047Z,3.30
2022-10-05T11:49:04.050Z,2.92
2022-10-05T11:51:55.152Z,4.80
2022-10-05T11:54:38.287Z,4.80
2022-10-05T11:57:43.138Z,4.28
2022-10-05T12:00:23.051Z,4.25
2022-10-05T12:03:16.732Z,4.07
2022-10-05T12:05:53.099Z,5.03
2022-10-05T12:08:45.414Z,8.10
2022-10-05T12:11:46.044Z,4.93
2022-10-05T12:14:28.154Z,4.68
2022-10-05T12:16:54.926Z,4.60
2022-10-05T12:19:28.497Z,3.67
2022-10-05T12:22:03.956Z,4.65
2022-10-05T12:25:06.373Z,5.82
2022-10-05T12:27:41.598Z,5.90
2022-10-05T12:30:12.945Z,7.45
2022-10-05T12:33:01.872Z,3.42
2022-10-05T12:35:53.761Z,3.37
2022-10-05T12:38:46.738Z,4.95
2022-10-05T12:41:32.340Z,5.15
2022-10-05T12:44:09.283Z,5.70
2022-10-05T12:46:48.381Z,6.70
2022-10-05T12:49:40.535Z,3.42
2022-10-05T12:52:20.017Z,5.62
2022-10-05T12:54:51.253Z,4.45
2022-10-05T12:57:43.927Z,4.55
2022-10-05T13:00:22.497Z,7.00
2022-10-05T13:02:54.986Z,5.35
2022-10-05T13:05:28.129Z,3.92
2022-10-05T13:08:09.994Z,4.62
2022-10-05T13:10:43.113Z,5.57
2022-10-05T13:13:18.413Z,4.37
2022-10-05T13:16:12.479Z,4.60
2022-10-05T13:18:49.986Z,4.12
2022-10-05T13:21:29.435Z,3.55
2022-10-05T13:24:05.238Z,5.65
2022-10-05T13:26:39.225Z,3.17
2022-10-05T13:29:29.377Z,6.25
2022-10-05T13:32:00.379Z,3.97
2022-10-05T13:34:51.387Z,3.42
2022-10-05T13:37:51.874Z,6.28
2022-10-05T13:41:06.234Z,6.37
2022-10-05T13:43:33.628Z,4.45
2022-10-05T13:46:19.347Z,3.08
2022-10-05T13:49:02.415Z,6.03
2022-10-05T13:51:41.899Z,3.53
2022-10-05T13:54:32.955Z,4.87
2022-10-05T13:57:11.848Z,4.50
2022-10-05T14:00:00.543Z,4.50
2022-10-05T14:02:30.143Z,7.07
2022-10-05T14:05:02.802Z,3.95
2022-10-05T14:07:48.436Z,5.32
2022-10-05T14:10:31.521Z,4.22
2022-10-05T14:12:58.556Z,5.60
2022-10-05T14:15:39.781Z,8.20
2022-10-05T14:18:25.343Z,7.62
2022-10-05T14:21:01.152Z,5.50
2022-10-05T14:23:28.158Z,7.28
2022-10-05T14:25:55.262Z,6.30
2022-10-05T14:28:33.832Z,3.65
2022-10-05T14:31:16.050Z,6.30
2022-10-05T14:33:43.176Z,4.00
2022-10-05T14:36:21.325Z,5.50
2022-10-05T14:38:55.827Z,5.57
2022-10-05T14:41:27.797Z,3.60
2022-10-05T14:44:16.360Z,4.07
2022-10-05T14:47:04.727Z,5.07
2022-10-05T14:49:36.518Z,8.63
2022-10-05T14:52:32.802Z,4.57
2022-10-05T14:55:18.753Z,4.93
2022-10-05T14:57:56.403Z,6.35
2022-10-05T15:00:24.504Z,6.22
2022-10-05T15:03:23.919Z,6.15
2022-10-05T15:06:00.154Z,6.18
2022-10-05T15:08:33.902Z,3.43
2022-10-05T15:11:05.393Z,4.93
2022-10-05T15:13:36.989Z,3.78
2022-10-05T15:16:28.562Z,6.03
2022-10-05T15:19:21.262Z,5.82
2022-10-05T15:22:22.427Z,5.47
2022-10-05T15:25:16.495Z,5.35
2022-10-05T16:37:04.871Z,18.35
2022-10-05T16:39:51.804Z,23.30
2022-10-05T16:42:18.593Z,32.10
2022-10-05T16:44:56.454Z,28.08
2022-10-05T16:47:50.894Z,22.62
2022-10-05T16:50:25.494Z,19.85
2022-10-05T16:53:02.583Z,15.95
2022-10-05T16:58:05.279Z,14.93
2022-10-05T17:00:59.569Z,15.10
2022-10-05T17:04:10.345Z,14.95
2022-10-05T17:07:01.607Z,15.20
2022-10-05T17:09:39.487Z,13.62
2022-10-05T17:12:26.868Z,12.02
2022-10-05T17:14:54.051Z,12.55
2022-10-05T17:17:44.134Z,11.95
2022-10-05T17:20:29.583Z,11.85
2022-10-05T17:23:06.258Z,15.35
2022-10-05T17:25:41.959Z,17.25
2022-10-05T17:28:40.204Z,19.67
2022-10-05T17:33:59.281Z,14.18
2022-10-05T17:36:40.344Z,15.52
2022-10-05T17:39:19.764Z,15.48
2022-10-05T17:41:46.993Z,18.60
2022-10-05T17:44:13.836Z,22.33
2022-10-05T17:46:47.595Z,25.00
2022-10-05T17:49:41.558Z,30.37
2022-10-05T17:52:43.223Z,30.80
2022-10-05T17:55:34.424Z,28.23
2022-10-05T17:58:24.288Z,30.35
2022-10-05T18:00:57.620Z,34.47
2022-10-05T18:03:41.015Z,58.47
2022-10-05T18:06:26.042Z,49.97
2022-10-05T18:09:22.652Z,38.47
2022-10-05T18:12:16.994Z,25.67
2022-10-05T18:15:06.765Z,24.90
2022-10-05T18:17:51.710Z,18.83
2022-10-05T18:20:24.430Z,15.45
2022-10-05T18:22:53.139Z,14.32
2022-10-05T18:25:34.064Z,12.52
2022-10-05T18:28:10.379Z,15.35
2022-10-05T18:31:15.726Z,13.13
2022-10-05T18:34:10.081Z,12.32
2022-10-05T18:37:08.889Z,11.55
2022-10-05T18:39:45.894Z,10.57
2022-10-05T18:42:53.981Z,15.32
2022-10-05T18:45:47.094Z,12.47
2022-10-05T18:48:34.476Z,11.52
2022-10-05T18:51:10.559Z,15.93
2022-10-05T18:53:52.048Z,13.85
2022-10-05T18:56:34.460Z,14.75
2022-10-05T18:59:18.566Z,13.85
2022-10-05T19:01:54.669Z,13.43
2022-10-05T19:04:59.891Z,17.48
2022-10-05T19:07:38.567Z,22.05
2022-10-05T19:10:25.063Z,23.52
2022-10-05T19:13:06.166Z,24.10
2022-10-05T19:15:46.970Z,24.15
2022-10-05T19:18:30.573Z,19.77
2022-10-05T19:21:22.056Z,17.20
2022-10-05T19:24:40.859Z,16.60
2022-10-05T19:27:39.272Z,20.52
2022-10-05T19:30:55.489Z,22.27
2022-10-05T19:33:59.724Z,17.77
2022-10-05T19:36:59.501Z,13.43
2022-10-05T19:39:39.578Z,15.90
2022-10-05T19:42:45.255Z,14.77
2022-10-05T19:45:25.126Z,14.00
2022-10-05T19:48:09.977Z,12.32
2022-10-05T19:50:40.039Z,11.43
2022-10-05T19:53:25.091Z,8.90
2022-10-05T19:55:54.268Z,10.63
2022-10-05T19:58:27.267Z,10.45
2022-10-05T20:01:02.292Z,8.77
2022-10-05T20:03:31.383Z,10.45
2022-10-05T20:06:02.497Z,10.23
2022-10-05T20:08:42.036Z,9.27
2022-10-05T20:11:11.127Z,9.77
2022-10-05T20:13:41.871Z,9.07
2022-10-05T20:16:36.557Z,10.32
2022-10-05T20:19:23.974Z,10.93
2022-10-05T20:21:59.321Z,9.05
2022-10-05T20:24:28.387Z,9.05
2022-10-05T20:27:09.539Z,12.43
2022-10-05T20:29:39.372Z,14.13
2022-10-05T20:32:12.370Z,10.70
2022-10-05T20:34:44.608Z,11.40
2022-10-05T20:37:13.478Z,8.88
2022-10-05T20:39:40.695Z,10.30
2022-10-05T20:42:08.705Z,9.65
2022-10-05T20:44:36.295Z,10.30
2022-10-05T20:47:04.496Z,7.30
2022-10-05T20:49:32.051Z,6.72
2022-10-05T20:51:59.450Z,8.13
2022-10-05T20:54:27.066Z,8.70
2022-10-05T20:59:26.875Z,6.70
2022-10-05T21:01:53.935Z,8.48
2022-10-05T21:04:23.297Z,8.13
2022-10-05T21:06:50.227Z,9.25
2022-10-05T21:09:19.644Z,8.02
2022-10-05T21:11:48.295Z,8.60
2022-10-05T21:14:15.254Z,8.10
2022-10-05T21:16:43.610Z,9.10
2022-10-05T21:19:15.300Z,8.82
2022-10-05T21:21:46.247Z,8.75
2022-10-05T21:24:14.548Z,10.43
2022-10-05T21:26:42.334Z,8.80
2022-10-05T21:29:12.688Z,9.57
2022-10-05T21:31:40.053Z,10.73
2022-10-05T21:34:07.122Z,9.65
2022-10-05T21:36:34.314Z,9.25
2022-10-05T21:39:01.333Z,8.35
2022-10-05T21:41:28.234Z,6.40
2022-10-05T21:43:55.151Z,9.80
2022-10-05T21:46:23.526Z,9.13
2022-10-05T21:48:50.520Z,8.20
2022-10-05T21:51:18.989Z,7.18
2022-10-05T21:54:03.752Z,11.30
2022-10-05T21:56:34.963Z,8.88
2022-10-05T21:59:03.622Z,8.73
2022-10-05T22:01:30.517Z,9.07
2022-10-05T22:03:57.402Z,7.32
2022-10-05T22:06:24.334Z,10.68
2022-10-05T22:08:51.166Z,8.55
2022-10-05T22:11:18.450Z,9.02
2022-10-05T22:13:47.683Z,9.85
2022-10-05T22:16:15.909Z,9.00
2022-10-05T22:18:43.183Z,8.70
2022-10-05T22:21:12.283Z,11.15
2022-10-05T22:23:40.372Z,11.45
2022-10-05T22:26:09.123Z,11.12
2022-10-05T22:28:37.546Z,10.77
2022-10-05T22:31:05.762Z,10.38
2022-10-05T22:33:32.791Z,8.82
2022-10-05T22:36:00.431Z,7.78
2022-10-05T22:38:27.749Z,8.60
2022-10-05T22:40:54.782Z,8.07
2022-10-05T22:43:21.638Z,6.80
2022-10-05T22:45:48.552Z,10.93
2022-10-05T22:48:16.183Z,8.82
2022-10-05T22:50:46.773Z,10.45
2022-10-05T22:53:13.952Z,9.57
2022-10-05T23:01:48.017Z,10.25
2022-10-05T23:04:14.905Z,9.70
2022-10-05T23:06:42.873Z,13.77
2022-10-05T23:09:09.724Z,10.45
2022-10-05T23:11:36.569Z,11.95
2022-10-05T23:14:03.468Z,8.63
2022-10-05T23:16:30.585Z,10.18
2022-10-05T23:18:57.588Z,9.15
2022-10-05T23:21:27.497Z,9.57
2022-10-05T23:23:54.347Z,9.98
2022-10-05T23:26:23.708Z,9.02
2022-10-05T23:28:50.686Z,9.57
2022-10-05T23:31:22.869Z,11.43
2022-10-05T23:33:49.886Z,11.20
2022-10-05T23:36:19.941Z,9.80
2022-10-05T23:38:47.207Z,10.43
2022-10-05T23:41:14.422Z,11.20
2022-10-05T23:43:41.350Z,12.45
2022-10-05T23:46:09.872Z,13.05
2022-10-05T23:48:39.430Z,10.00
2022-10-05T23:51:08.095Z,12.85
2022-10-05T23:53:34.973Z,10.77
2022-10-05T23:56:01.900Z,10.70
2022-10-05T23:58:28.891Z,10.50
